createdAt,value
2022-07-31T00:00:50.599Z,2.25
2022-07-31T00:03:18.396Z,2.28
2022-07-31T00:05:46.350Z,2.30
2022-07-31T00:08:15.199Z,1.98
2022-07-31T00:10:44.500Z,2.67
2022-07-31T00:13:13.918Z,2.33
2022-07-31T00:15:41.721Z,2.42
2022-07-31T00:18:09.681Z,2.67
2022-07-31T00:20:37.460Z,2.45
2022-07-31T00:23:05.539Z,2.50
2022-07-31T00:25:33.689Z,2.70
2022-07-31T00:28:03.183Z,2.60
2022-07-31T00:30:31.210Z,2.78
2022-07-31T00:32:59.250Z,2.53
2022-07-31T00:35:27.070Z,2.20
2022-07-31T00:38:24.715Z,2.45
2022-07-31T00:40:48.019Z,2.30
2022-07-31T00:43:18.907Z,2.40
2022-07-31T00:45:49.287Z,2.25
2022-07-31T00:48:27.638Z,3.00
2022-07-31T00:50:56.041Z,2.45
2022-07-31T00:53:24.117Z,2.53
2022-07-31T00:55:52.368Z,2.40
2022-07-31T00:58:22.077Z,2.60
2022-07-31T01:00:51.218Z,2.70
2022-07-31T01:03:19.438Z,2.63
2022-07-31T01:05:47.771Z,2.50
2022-07-31T01:08:16.378Z,2.55
2022-07-31T01:10:54.733Z,2.75
2022-07-31T01:13:32.018Z,2.83
2022-07-31T01:16:02.751Z,2.50
2022-07-31T01:18:35.171Z,2.30
2022-07-31T01:21:09.127Z,2.45
2022-07-31T01:24:09.038Z,2.65
2022-07-31T01:27:01.801Z,2.35
2022-07-31T01:29:37.920Z,2.53
2022-07-31T01:32:11.037Z,2.35
2022-07-31T01:34:46.350Z,2.53
2022-07-31T01:37:21.015Z,2.38
2022-07-31T01:39:55.057Z,2.55
2022-07-31T01:42:25.163Z,2.38
2022-07-31T01:44:58.446Z,2.60
2022-07-31T01:47:28.358Z,2.30
2022-07-31T01:49:58.848Z,2.70
2022-07-31T01:52:29.771Z,2.55
2022-07-31T01:55:00.145Z,2.60
2022-07-31T01:57:29.917Z,2.60
2022-07-31T02:00:06.194Z,2.55
2022-07-31T02:02:55.945Z,2.50
2022-07-31T02:05:25.224Z,2.78
2022-07-31T02:07:55.042Z,3.40
2022-07-31T02:10:27.204Z,2.67
2022-07-31T02:12:56.990Z,2.40
2022-07-31T02:15:27.426Z,2.97
2022-07-31T02:17:57.534Z,2.90
2022-07-31T02:20:51.910Z,2.67
2022-07-31T02:23:19.945Z,2.38
2022-07-31T02:25:48.564Z,2.50
2022-07-31T02:28:22.530Z,2.42
2022-07-31T02:33:37.176Z,2.50
2022-07-31T02:36:07.008Z,2.65
2022-07-31T02:38:36.305Z,2.80
2022-07-31T02:41:06.767Z,3.20
2022-07-31T02:43:36.597Z,2.67
2022-07-31T02:46:18.717Z,2.50
2022-07-31T02:48:47.320Z,2.40
2022-07-31T02:51:16.448Z,2.10
2022-07-31T02:53:44.947Z,2.67
2022-07-31T02:56:13.482Z,2.75
2022-07-31T02:58:42.928Z,2.53
2022-07-31T03:01:23.023Z,2.33
2022-07-31T03:03:51.208Z,2.92
2022-07-31T03:06:19.214Z,2.88
2022-07-31T03:08:47.293Z,3.03
2022-07-31T03:11:19.848Z,2.63
2022-07-31T03:13:48.731Z,2.60
2022-07-31T03:16:17.324Z,2.75
2022-07-31T03:18:48.438Z,2.40
2022-07-31T03:21:19.415Z,2.90
2022-07-31T03:23:48.155Z,2.45
2022-07-31T03:26:21.255Z,2.45
2022-07-31T03:28:49.396Z,2.30
2022-07-31T03:31:17.504Z,2.92
2022-07-31T03:33:47.166Z,2.75
2022-07-31T03:36:17.238Z,2.72
2022-07-31T03:38:50.150Z,2.90
2022-07-31T03:41:35.966Z,2.63
2022-07-31T03:44:04.496Z,2.47
2022-07-31T03:46:32.845Z,2.50
2022-07-31T03:49:02.844Z,2.53
2022-07-31T03:51:32.049Z,2.65
2022-07-31T03:54:00.547Z,2.72
2022-07-31T03:56:57.346Z,2.30
2022-07-31T03:59:27.886Z,2.60
2022-07-31T04:02:00.856Z,3.03
2022-07-31T04:04:43.046Z,3.10
2022-07-31T04:07:11.177Z,3.28
2022-07-31T04:09:39.326Z,3.03
2022-07-31T04:12:08.507Z,2.75
2022-07-31T04:14:36.645Z,2.50
2022-07-31T04:17:05.456Z,2.88
2022-07-31T04:19:34.257Z,3.38
2022-07-31T04:22:04.518Z,2.83
2022-07-31T04:24:33.887Z,2.80
2022-07-31T04:27:18.136Z,2.53
2022-07-31T04:29:46.876Z,3.17
2022-07-31T04:32:16.161Z,3.13
2022-07-31T04:34:50.654Z,2.95
2022-07-31T04:37:20.335Z,2.67
2022-07-31T04:39:48.494Z,2.58
2022-07-31T04:42:16.762Z,2.83
2022-07-31T04:44:45.443Z,2.58
2022-07-31T04:47:14.315Z,2.78
2022-07-31T04:49:49.413Z,2.58
2022-07-31T04:52:20.233Z,2.38
2022-07-31T04:54:50.784Z,2.42
2022-07-31T04:57:21.925Z,2.65
2022-07-31T04:59:59.830Z,2.40
2022-07-31T05:02:33.934Z,2.72
2022-07-31T05:05:02.303Z,2.67
2022-07-31T05:07:35.488Z,2.70
2022-07-31T05:10:10.372Z,3.00
2022-07-31T05:12:38.424Z,2.67
2022-07-31T05:15:07.943Z,2.50
2022-07-31T05:17:36.085Z,2.70
2022-07-31T05:20:39.114Z,2.95
2022-07-31T05:23:27.114Z,2.83
2022-07-31T05:26:05.683Z,3.00
2022-07-31T05:28:34.303Z,2.90
2022-07-31T05:31:03.394Z,2.80
2022-07-31T05:33:32.092Z,2.80
2022-07-31T05:36:09.586Z,2.67
2022-07-31T05:38:39.184Z,3.35
2022-07-31T05:41:31.166Z,3.20
2022-07-31T05:44:17.484Z,2.90
2022-07-31T05:46:47.804Z,3.20
2022-07-31T05:49:16.246Z,2.90
2022-07-31T05:51:54.522Z,3.40
2022-07-31T05:54:24.456Z,3.22
2022-07-31T05:57:11.235Z,3.33
2022-07-31T05:59:43.375Z,2.65
2022-07-31T06:02:12.279Z,3.33
2022-07-31T06:05:04.704Z,3.17
2022-07-31T06:07:33.111Z,2.60
2022-07-31T06:10:05.014Z,2.50
2022-07-31T06:12:33.281Z,3.10
2022-07-31T06:15:03.153Z,3.13
2022-07-31T06:17:50.730Z,3.08
2022-07-31T06:20:28.431Z,2.53
2022-07-31T06:22:56.896Z,2.92
2022-07-31T06:25:34.932Z,2.63
2022-07-31T06:28:10.429Z,2.42
2022-07-31T06:30:41.251Z,2.60
2022-07-31T06:33:09.580Z,2.80
2022-07-31T06:35:44.930Z,2.58
2022-07-31T06:38:31.261Z,2.53
2022-07-31T06:41:39.340Z,2.75
2022-07-31T06:44:26.025Z,2.60
2022-07-31T06:47:13.879Z,2.38
2022-07-31T06:49:59.019Z,2.70
2022-07-31T06:52:29.000Z,2.67
2022-07-31T06:54:57.560Z,2.80
2022-07-31T06:57:27.060Z,2.83
2022-07-31T06:59:56.760Z,3.10
2022-07-31T07:02:25.499Z,2.97
2022-07-31T07:05:04.729Z,2.75
2022-07-31T07:07:37.043Z,2.30
2022-07-31T07:10:08.199Z,2.75
2022-07-31T07:15:24.259Z,2.22
2022-07-31T07:17:52.340Z,2.40
2022-07-31T07:20:28.751Z,2.70
2022-07-31T07:22:57.420Z,2.08
2022-07-31T07:25:38.968Z,2.38
2022-07-31T07:28:14.936Z,2.33
2022-07-31T07:30:44.975Z,2.43
2022-07-31T07:33:14.437Z,2.40
2022-07-31T07:36:03.836Z,2.65
2022-07-31T07:38:32.144Z,2.03
2022-07-31T07:41:04.004Z,2.53
2022-07-31T07:43:33.636Z,2.70
2022-07-31T07:46:01.896Z,1.92
2022-07-31T07:48:30.664Z,2.25
2022-07-31T07:51:17.665Z,1.67
2022-07-31T07:53:53.595Z,2.00
2022-07-31T07:56:41.635Z,1.85
2022-07-31T07:59:33.945Z,2.10
2022-07-31T08:02:34.834Z,1.98
2022-07-31T08:05:03.225Z,2.45
2022-07-31T08:07:41.803Z,2.42
2022-07-31T08:10:26.608Z,1.95
2022-07-31T08:13:01.858Z,2.22
2022-07-31T08:15:49.890Z,1.80
2022-07-31T08:18:41.381Z,1.98
2022-07-31T08:21:09.570Z,1.85
2022-07-31T08:23:37.560Z,1.80
2022-07-31T08:26:08.780Z,2.00
2022-07-31T08:28:37.478Z,2.25
2022-07-31T08:31:07.168Z,1.80
2022-07-31T08:33:47.806Z,1.77
2022-07-31T08:36:15.992Z,1.65
2022-07-31T08:38:44.371Z,1.70
2022-07-31T08:45:25.795Z,1.50
2022-07-31T08:48:17.264Z,1.50
2022-07-31T08:50:53.676Z,1.67
2022-07-31T08:53:45.812Z,1.63
2022-07-31T08:56:20.393Z,1.38
2022-07-31T08:58:48.845Z,1.83
2022-07-31T09:01:17.189Z,1.55
2022-07-31T09:03:47.754Z,1.60
2022-07-31T09:06:17.073Z,1.60
2022-07-31T09:08:45.448Z,1.50
2022-07-31T09:11:15.284Z,2.05
2022-07-31T09:14:02.322Z,1.70
2022-07-31T09:16:50.643Z,1.30
2022-07-31T09:19:52.431Z,1.52
2022-07-31T09:22:31.654Z,1.40
2022-07-31T09:25:16.513Z,1.05
2022-07-31T09:27:44.937Z,0.95
2022-07-31T09:30:13.739Z,1.00
2022-07-31T09:33:14.213Z,2.95
2022-07-31T09:36:25.360Z,0.98
2022-07-31T09:39:04.269Z,1.13
2022-07-31T09:41:57.999Z,1.20
2022-07-31T09:44:57.194Z,4.75
2022-07-31T09:47:29.330Z,0.90
2022-07-31T09:50:02.643Z,1.00
2022-07-31T09:52:33.736Z,1.17
2022-07-31T09:55:15.918Z,1.00
2022-07-31T09:57:54.775Z,0.85
2022-07-31T10:00:24.197Z,4.30
2022-07-31T10:02:55.221Z,6.25
2022-07-31T10:05:25.763Z,1.02
2022-07-31T10:08:01.026Z,0.95
2022-07-31T10:10:54.068Z,0.90
2022-07-31T10:13:28.899Z,0.70
2022-07-31T10:16:00.288Z,1.00
2022-07-31T10:18:41.570Z,0.90
2022-07-31T10:24:14.277Z,0.68
2022-07-31T10:27:11.287Z,0.90
2022-07-31T10:29:33.279Z,0.63
2022-07-31T10:32:06.851Z,0.80
2022-07-31T10:34:38.272Z,0.90
2022-07-31T10:37:19.294Z,0.98
2022-07-31T10:40:13.809Z,1.15
2022-07-31T10:42:50.072Z,0.88
2022-07-31T10:45:18.927Z,1.00
2022-07-31T10:47:56.013Z,2.17
2022-07-31T10:50:44.630Z,4.97
2022-07-31T10:53:50.626Z,1.35
2022-07-31T10:56:17.064Z,5.22
2022-07-31T10:59:06.338Z,1.13
2022-07-31T11:02:10.113Z,1.80
2022-07-31T11:04:55.115Z,1.02
2022-07-31T11:07:38.279Z,1.10
2022-07-31T11:10:11.388Z,0.88
2022-07-31T11:13:04.770Z,0.90
2022-07-31T11:16:04.217Z,1.20
2022-07-31T11:18:41.037Z,1.00
2022-07-31T11:21:38.040Z,1.02
2022-07-31T11:24:04.289Z,1.02
2022-07-31T11:26:41.648Z,0.90
2022-07-31T11:29:59.154Z,0.93
2022-07-31T11:32:01.860Z,1.02
2022-07-31T11:34:30.369Z,0.90
2022-07-31T11:36:58.977Z,0.70
2022-07-31T11:39:36.421Z,1.00
2022-07-31T11:42:07.368Z,1.00
2022-07-31T11:44:37.739Z,1.00
2022-07-31T11:48:09.929Z,1.00
2022-07-31T11:50:02.353Z,0.98
2022-07-31T11:52:37.537Z,0.77
2022-07-31T11:55:09.822Z,0.85
2022-07-31T11:57:52.236Z,0.80
2022-07-31T12:00:35.041Z,0.60
2022-07-31T12:03:03.641Z,0.80
2022-07-31T12:05:38.691Z,0.63
2022-07-31T12:10:36.731Z,0.80
2022-07-31T12:13:05.393Z,1.00
2022-07-31T12:15:36.718Z,1.05
2022-07-31T12:18:06.765Z,2.08
2022-07-31T12:20:37.762Z,1.40
2022-07-31T12:23:40.168Z,1.08
2022-07-31T12:26:02.190Z,1.30
2022-07-31T12:28:33.518Z,1.42
2022-07-31T12:31:03.894Z,1.33
2022-07-31T12:33:42.680Z,1.00
2022-07-31T12:36:15.938Z,0.95
2022-07-31T12:38:48.381Z,0.82
2022-07-31T12:41:17.904Z,0.70
2022-07-31T12:43:51.663Z,0.80
2022-07-31T12:46:39.357Z,0.85
2022-07-31T12:49:08.677Z,0.80
2022-07-31T12:51:45.793Z,1.13
2022-07-31T12:54:16.467Z,0.90
2022-07-31T12:56:45.877Z,0.88
2022-07-31T12:59:14.779Z,1.08
2022-07-31T13:01:44.313Z,0.80
2022-07-31T13:04:18.322Z,0.73
2022-07-31T13:06:51.914Z,0.60
2022-07-31T13:09:20.683Z,0.90
2022-07-31T13:11:49.902Z,0.80
2022-07-31T13:14:21.584Z,0.90
2022-07-31T13:16:52.497Z,0.70
2022-07-31T13:19:20.806Z,0.70
2022-07-31T13:21:51.936Z,0.88
2022-07-31T13:24:25.213Z,0.82
2022-07-31T13:26:53.302Z,1.02
2022-07-31T13:29:21.462Z,0.98
2022-07-31T13:31:50.764Z,0.85
2022-07-31T13:34:19.117Z,0.90
2022-07-31T13:36:47.543Z,1.10
2022-07-31T13:39:15.813Z,0.68
2022-07-31T13:41:43.624Z,0.70
2022-07-31T13:44:12.673Z,1.67
2022-07-31T13:46:40.584Z,3.00
2022-07-31T13:49:10.745Z,1.30
2022-07-31T13:51:39.667Z,0.98
2022-07-31T13:54:07.863Z,0.80
2022-07-31T13:56:41.225Z,1.00
2022-07-31T13:59:12.823Z,0.80
2022-07-31T14:02:03.703Z,0.90
2022-07-31T14:04:32.678Z,1.13
2022-07-31T14:07:04.109Z,1.17
2022-07-31T14:09:35.127Z,0.98
2022-07-31T14:12:03.606Z,1.90
2022-07-31T14:14:32.657Z,1.17
2022-07-31T14:17:00.958Z,1.00
2022-07-31T14:19:30.502Z,1.17
2022-07-31T14:22:13.421Z,0.90
2022-07-31T14:24:41.526Z,1.10
2022-07-31T14:27:17.465Z,1.35
2022-07-31T14:29:45.829Z,1.48
2022-07-31T14:32:13.877Z,1.13
2022-07-31T14:34:43.232Z,1.35
2022-07-31T14:37:11.308Z,1.20
2022-07-31T14:39:42.983Z,1.10
2022-07-31T14:42:12.222Z,1.60
2022-07-31T14:44:42.350Z,1.30
2022-07-31T14:47:11.348Z,1.05
2022-07-31T14:50:07.772Z,1.48
2022-07-31T14:52:30.259Z,1.27
2022-07-31T14:55:00.322Z,1.45
2022-07-31T14:57:29.059Z,1.10
2022-07-31T14:59:57.064Z,1.30
2022-07-31T15:02:25.167Z,0.98
2022-07-31T15:04:53.491Z,1.40
2022-07-31T15:07:43.601Z,1.10
2022-07-31T15:10:12.561Z,1.30
2022-07-31T15:12:41.162Z,1.35
2022-07-31T15:15:10.318Z,1.33
2022-07-31T15:17:38.438Z,1.17
2022-07-31T15:20:07.440Z,0.98
2022-07-31T15:22:35.528Z,1.27
2022-07-31T15:25:05.671Z,1.20
2022-07-31T15:27:35.177Z,1.00
2022-07-31T15:30:07.172Z,1.15
2022-07-31T15:32:37.542Z,1.25
2022-07-31T15:35:07.328Z,1.05
2022-07-31T15:37:36.226Z,1.30
2022-07-31T15:40:05.790Z,1.50
2022-07-31T15:42:38.622Z,1.35
2022-07-31T15:45:08.850Z,1.60
2022-07-31T15:47:36.868Z,1.20
2022-07-31T15:50:05.317Z,1.10
2022-07-31T15:52:33.186Z,1.45
2022-07-31T15:55:01.300Z,1.13
2022-07-31T15:57:29.340Z,1.40
2022-07-31T15:59:58.713Z,1.20
2022-07-31T16:02:27.512Z,1.30
2022-07-31T16:04:58.565Z,1.40
2022-07-31T16:08:28.877Z,1.20
2022-07-31T16:10:18.883Z,1.38
2022-07-31T16:12:47.350Z,1.60
2022-07-31T16:15:17.374Z,1.95
2022-07-31T16:17:46.002Z,1.15
2022-07-31T16:20:25.991Z,1.65
2022-07-31T16:22:56.284Z,1.60
2022-07-31T16:25:25.016Z,2.42
2022-07-31T16:27:53.341Z,3.33
2022-07-31T16:30:23.247Z,4.25
2022-07-31T16:32:51.756Z,1.98
2022-07-31T16:35:19.895Z,2.20
2022-07-31T16:37:50.119Z,2.30
2022-07-31T16:40:29.764Z,1.77
2022-07-31T16:43:01.615Z,1.83
2022-07-31T16:45:31.655Z,2.25
2022-07-31T16:47:59.755Z,2.38
2022-07-31T16:50:27.977Z,4.38
2022-07-31T16:52:56.216Z,4.15
2022-07-31T16:55:46.126Z,2.92
2022-07-31T16:58:16.326Z,4.03
2022-07-31T17:00:47.425Z,2.80
2022-07-31T17:03:59.412Z,2.63
2022-07-31T17:06:04.276Z,1.88
2022-07-31T17:08:32.242Z,2.80
2022-07-31T17:11:00.175Z,1.70
2022-07-31T17:13:28.610Z,1.55
2022-07-31T17:15:58.722Z,2.00
2022-07-31T17:18:26.854Z,1.88
2022-07-31T17:20:55.877Z,1.80
2022-07-31T17:23:42.625Z,1.80
2022-07-31T17:26:21.063Z,2.28
2022-07-31T17:28:50.817Z,1.60
2022-07-31T17:31:20.520Z,1.67
2022-07-31T17:33:58.193Z,1.95
2022-07-31T17:36:28.372Z,1.55
2022-07-31T17:38:56.327Z,1.70
2022-07-31T17:41:26.082Z,1.80
2022-07-31T17:43:54.543Z,2.03
2022-07-31T17:46:34.397Z,1.85
2022-07-31T17:49:04.659Z,1.52
2022-07-31T17:51:32.642Z,1.27
2022-07-31T17:54:00.773Z,1.50
2022-07-31T17:56:29.866Z,1.35
2022-07-31T17:59:04.630Z,1.50
2022-07-31T18:01:34.954Z,1.50
2022-07-31T18:04:03.576Z,1.40
2022-07-31T18:06:31.682Z,1.40
2022-07-31T18:09:00.066Z,1.10
2022-07-31T18:11:28.295Z,1.00
2022-07-31T18:14:03.441Z,1.40
2022-07-31T18:16:34.079Z,1.08
2022-07-31T18:19:01.983Z,1.35
2022-07-31T18:21:31.167Z,1.15
2022-07-31T18:24:04.794Z,1.10
2022-07-31T18:26:35.378Z,1.30
2022-07-31T18:29:03.720Z,1.30
2022-07-31T18:31:34.223Z,3.30
2022-07-31T18:34:05.148Z,4.10
2022-07-31T18:36:33.449Z,6.50
2022-07-31T18:39:01.801Z,6.25
2022-07-31T18:41:30.018Z,5.28
2022-07-31T18:43:58.241Z,3.67
2022-07-31T18:46:26.272Z,2.35
2022-07-31T18:49:07.808Z,2.50
2022-07-31T18:51:55.838Z,1.70
2022-07-31T18:54:23.770Z,1.63
2022-07-31T18:56:51.793Z,1.58
2022-07-31T18:59:20.911Z,1.35
2022-07-31T19:01:49.218Z,1.42
2022-07-31T19:04:18.650Z,1.50
2022-07-31T19:06:46.600Z,1.70
2022-07-31T19:09:14.891Z,1.25
2022-07-31T19:11:50.814Z,1.30
2022-07-31T19:14:22.002Z,1.55
2022-07-31T19:16:50.272Z,1.85
2022-07-31T19:19:19.751Z,1.20
2022-07-31T19:21:58.767Z,1.52
2022-07-31T19:24:26.703Z,1.30
2022-07-31T19:26:55.402Z,1.50
2022-07-31T19:29:24.562Z,1.67
2022-07-31T19:31:52.642Z,1.45
2022-07-31T19:34:22.186Z,1.50
2022-07-31T19:36:50.262Z,1.30
2022-07-31T19:39:19.957Z,1.70
2022-07-31T19:42:10.977Z,1.73
2022-07-31T19:44:36.367Z,2.05
2022-07-31T19:47:04.718Z,2.05
2022-07-31T19:49:37.948Z,2.03
2022-07-31T19:52:08.212Z,2.38
2022-07-31T19:54:36.823Z,1.83
2022-07-31T19:57:05.309Z,2.28
2022-07-31T19:59:33.268Z,2.00
2022-07-31T20:02:01.486Z,2.05
2022-07-31T20:04:29.626Z,1.90
2022-07-31T20:06:59.402Z,1.27
2022-07-31T20:09:27.387Z,1.50
2022-07-31T20:11:55.277Z,1.58
2022-07-31T20:14:23.327Z,1.70
2022-07-31T20:16:51.336Z,1.35
2022-07-31T20:19:19.328Z,1.42
2022-07-31T20:21:50.413Z,1.33
2022-07-31T20:24:22.641Z,1.42
2022-07-31T20:26:51.503Z,1.30
2022-07-31T20:29:20.487Z,1.25
2022-07-31T20:31:53.904Z,1.40
2022-07-31T20:34:23.627Z,3.40
2022-07-31T20:36:51.934Z,5.40
2022-07-31T20:39:25.870Z,3.95
2022-07-31T20:42:01.778Z,3.63
2022-07-31T20:44:32.584Z,3.13
2022-07-31T20:47:01.002Z,3.13
2022-07-31T20:49:35.691Z,10.55
2022-07-31T20:52:05.287Z,6.22
2022-07-31T20:54:35.097Z,5.47
2022-07-31T20:57:03.333Z,2.72
2022-07-31T20:59:31.831Z,2.47
2022-07-31T21:02:00.411Z,1.80
2022-07-31T21:04:29.101Z,1.92
2022-07-31T21:06:57.351Z,1.48
2022-07-31T21:09:25.275Z,2.13
2022-07-31T21:11:55.662Z,1.70
2022-07-31T21:14:23.735Z,1.70
2022-07-31T21:16:52.311Z,1.42
2022-07-31T21:19:20.692Z,1.33
2022-07-31T21:21:48.901Z,1.80
2022-07-31T21:24:17.521Z,1.40
2022-07-31T21:26:46.101Z,1.40
2022-07-31T21:29:22.435Z,1.25
2022-07-31T21:31:51.049Z,1.25
2022-07-31T21:34:21.265Z,1.42
2022-07-31T21:36:50.504Z,1.20
2022-07-31T21:39:20.112Z,1.38
2022-07-31T21:41:48.872Z,1.48
2022-07-31T21:44:21.006Z,1.67
2022-07-31T21:46:55.956Z,1.70
2022-07-31T21:49:26.527Z,1.50
2022-07-31T21:51:55.306Z,1.35
2022-07-31T21:56:56.688Z,1.50
2022-07-31T21:59:24.876Z,1.70
2022-07-31T22:02:01.836Z,1.13
2022-07-31T22:04:34.742Z,1.33
2022-07-31T22:07:21.728Z,1.10
2022-07-31T22:12:17.178Z,1.23
2022-07-31T22:14:46.085Z,1.50
2022-07-31T22:17:15.585Z,1.55
2022-07-31T22:19:47.108Z,1.33
2022-07-31T22:22:16.507Z,1.13
2022-07-31T22:24:44.686Z,1.30
2022-07-31T22:27:33.042Z,1.15
2022-07-31T22:30:01.768Z,2.08
2022-07-31T22:32:31.573Z,1.33
2022-07-31T22:34:59.937Z,1.40
2022-07-31T22:37:28.996Z,1.48
2022-07-31T22:39:58.936Z,1.52
2022-07-31T22:42:28.575Z,1.20
2022-07-31T22:44:57.339Z,1.20
2022-07-31T22:47:27.426Z,1.50
2022-07-31T22:49:57.658Z,1.15
2022-07-31T22:52:35.067Z,1.23
2022-07-31T22:55:05.576Z,1.50
2022-07-31T22:57:33.468Z,1.55
2022-07-31T23:00:01.872Z,1.40
2022-07-31T23:02:30.020Z,1.42
2022-07-31T23:05:02.359Z,1.95
2022-07-31T23:07:30.407Z,1.60
2022-07-31T23:09:58.326Z,1.48
2022-07-31T23:12:28.594Z,1.77
2022-07-31T23:14:57.857Z,1.38
2022-07-31T23:17:25.778Z,1.67
2022-07-31T23:19:54.553Z,1.50
2022-07-31T23:22:33.379Z,1.38
2022-07-31T23:25:02.327Z,1.38
2022-07-31T23:27:30.235Z,1.50
2022-07-31T23:29:58.968Z,1.55
2022-07-31T23:32:27.478Z,1.60
2022-07-31T23:34:55.446Z,1.50
2022-07-31T23:37:24.488Z,1.88
2022-07-31T23:39:52.458Z,1.30
2022-07-31T23:42:38.332Z,1.52
2022-07-31T23:45:08.706Z,2.47
2022-07-31T23:47:45.399Z,1.70
2022-07-31T23:50:15.008Z,1.25
2022-07-31T23:52:44.899Z,1.50
2022-07-31T23:55:12.973Z,1.52
2022-07-31T23:57:40.747Z,1.80
